sensor_id;sensor_type;location;lat;lon;timestamp;pressure;altitude;pressure_sealevel;temperature;humidity
13800;BME280;6971;50.028;9.258;2023-01-26T00:02:56;100064.41;;;-1.38;100.00
13800;BME280;6971;50.028;9.258;2023-01-26T00:07:57;100060.03;;;-1.56;100.00
13800;BME280;6971;50.028;9.258;2023-01-26T00:12:58;100062.59;;;-1.58;100.00
13800;BME280;6971;50.028;9.258;2023-01-26T00:17:59;100041.91;;;-1.58;100.00
13800;BME280;6971;50.028;9.258;2023-01-26T00:23:00;100034.19;;;-1.55;100.00
13800;BME280;6971;50.028;9.258;2023-01-26T00:28:00;100028.16;;;-1.48;100.00
13800;BME280;6971;50.028;9.258;2023-01-26T00:33:02;100032.50;;;-1.48;100.00
13800;BME280;6971;50.028;9.258;2023-01-26T00:38:04;100032.50;;;-1.48;100.00
13800;BME280;6971;50.028;9.258;2023-01-26T00:43:05;100030.78;;;-1.45;100.00
13800;BME280;6971;50.028;9.258;2023-01-26T00:48:05;100025.59;;;-1.45;100.00
13800;BME280;6971;50.028;9.258;2023-01-26T00:53:07;100027.25;;;-1.62;100.00
13800;BME280;6971;50.028;9.258;2023-01-26T00:58:08;100023.81;;;-1.53;100.00
13800;BME280;6971;50.028;9.258;2023-01-26T01:03:10;100012.59;;;-1.60;100.00
13800;BME280;6971;50.028;9.258;2023-01-26T01:08:10;100014.34;;;-1.59;100.00
13800;BME280;6971;50.028;9.258;2023-01-26T01:13:12;100010.88;;;-1.58;100.00
13800;BME280;6971;50.028;9.258;2023-01-26T01:18:13;100014.34;;;-1.59;100.00
13800;BME280;6971;50.028;9.258;2023-01-26T01:23:14;100018.59;;;-1.66;100.00
13800;BME280;6971;50.028;9.258;2023-01-26T01:28:15;100005.66;;;-1.64;100.00
13800;BME280;6971;50.028;9.258;2023-01-26T01:33:16;100025.38;;;-1.87;100.00
13800;BME280;6971;50.028;9.258;2023-01-26T01:38:17;100020.31;;;-1.68;100.00
13800;BME280;6971;50.028;9.258;2023-01-26T01:43:18;100011.63;;;-1.78;100.00
13800;BME280;6971;50.028;9.258;2023-01-26T01:48:34;100005.56;;;-1.86;100.00
13800;BME280;6971;50.028;9.258;2023-01-26T01:53:40;100010.88;;;-1.58;100.00
13800;BME280;6971;50.028;9.258;2023-01-26T01:58:43;100009.16;;;-1.59;100.00
13800;BME280;6971;50.028;9.258;2023-01-26T02:03:46;100012.59;;;-1.60;100.00
13800;BME280;6971;50.028;9.258;2023-01-26T02:08:52;100009.13;;;-1.62;100.00
13800;BME280;6971;50.028;9.258;2023-01-26T02:13:54;99996.19;;;-1.65;100.00
13800;BME280;6971;50.028;9.258;2023-01-26T02:18:57;99990.19;;;-1.60;100.00
13800;BME280;6971;50.028;9.258;2023-01-26T02:29:24;99984.16;;;-1.62;100.00
13800;BME280;6971;50.028;9.258;2023-01-26T02:34:25;99976.38;;;-1.66;100.00
13800;BME280;6971;50.028;9.258;2023-01-26T02:39:48;99963.38;;;-1.79;100.00
13800;BME280;6971;50.028;9.258;2023-01-26T02:44:52;99962.59;;;-1.65;100.00
13800;BME280;6971;50.028;9.258;2023-01-26T02:49:53;99959.97;;;-1.73;100.00
13800;BME280;6971;50.028;9.258;2023-01-26T02:54:54;99951.34;;;-1.75;100.00
13800;BME280;6971;50.028;9.258;2023-01-26T03:00:26;99949.66;;;-1.72;100.00
13800;BME280;6971;50.028;9.258;2023-01-26T03:05:27;99936.69;;;-1.75;100.00
13800;BME280;6971;50.028;9.258;2023-01-26T03:10:29;99933.25;;;-1.74;100.00
13800;BME280;6971;50.028;9.258;2023-01-26T03:15:30;99926.34;;;-1.78;100.00
13800;BME280;6971;50.028;9.258;2023-01-26T03:20:42;99929.75;;;-1.87;100.00
13800;BME280;6971;50.028;9.258;2023-01-26T03:26:02;99925.38;;;-1.95;100.00
13800;BME280;6971;50.028;9.258;2023-01-26T03:31:22;99923.69;;;-2.00;100.00
13800;BME280;6971;50.028;9.258;2023-01-26T03:36:23;99919.47;;;-1.76;100.00
13800;BME280;6971;50.028;9.258;2023-01-26T03:41:23;99916.84;;;-1.82;100.00
13800;BME280;6971;50.028;9.258;2023-01-26T03:46:43;99914.25;;;-1.87;100.00
13800;BME280;6971;50.028;9.258;2023-01-26T03:52:03;99917.75;;;-1.74;100.00
13800;BME280;6971;50.028;9.258;2023-01-26T03:57:23;99910.81;;;-1.90;100.00
13800;BME280;6971;50.028;9.258;2023-01-26T04:02:24;99904.78;;;-1.88;100.00
13800;BME280;6971;50.028;9.258;2023-01-26T04:07:44;99907.31;;;-1.92;100.00
13800;BME280;6971;50.028;9.258;2023-01-26T04:13:03;99899.56;;;-1.92;100.00
13800;BME280;6971;50.028;9.258;2023-01-26T04:18:22;99879.75;;;-1.95;100.00
13800;BME280;6971;50.028;9.258;2023-01-26T04:23:42;99889.28;;;-1.83;100.00
13800;BME280;6971;50.028;9.258;2023-01-26T04:28:43;99879.72;;;-2.06;100.00
13800;BME280;6971;50.028;9.258;2023-01-26T04:33:43;99878.84;;;-2.06;100.00
13800;BME280;6971;50.028;9.258;2023-01-26T04:38:44;99882.31;;;-2.03;100.00
13800;BME280;6971;50.028;9.258;2023-01-26T04:43:45;99878.91;;;-1.97;100.00
13800;BME280;6971;50.028;9.258;2023-01-26T04:48:46;99878.03;;;-1.91;100.00
13800;BME280;6971;50.028;9.258;2023-01-26T04:53:48;99872.84;;;-2.04;100.00
13800;BME280;6971;50.028;9.258;2023-01-26T04:59:06;99874.56;;;-1.98;100.00
13800;BME280;6971;50.028;9.258;2023-01-26T05:04:09;99871.09;;;-2.08;100.00
13800;BME280;6971;50.028;9.258;2023-01-26T05:09:12;99868.53;;;-2.02;100.00
13800;BME280;6971;50.028;9.258;2023-01-26T05:14:12;99869.34;;;-2.07;100.00
13800;BME280;6971;50.028;9.258;2023-01-26T05:19:14;99868.47;;;-2.13;100.00
13800;BME280;6971;50.028;9.258;2023-01-26T05:24:15;99871.06;;;-2.14;100.00
13800;BME280;6971;50.028;9.258;2023-01-26T05:29:16;99874.50;;;-2.15;100.00
13800;BME280;6971;50.028;9.258;2023-01-26T05:34:17;99882.22;;;-2.18;100.00
13800;BME280;6971;50.028;9.258;2023-01-26T05:39:18;99881.16;;;-2.49;100.00
13800;BME280;6971;50.028;9.258;2023-01-26T05:44:19;99876.91;;;-2.46;100.00
13800;BME280;6971;50.028;9.258;2023-01-26T05:49:20;99883.00;;;-2.35;100.00
13800;BME280;6971;50.028;9.258;2023-01-26T05:54:21;99884.78;;;-2.23;100.00
13800;BME280;6971;50.028;9.258;2023-01-26T05:59:22;99893.44;;;-2.13;100.00
13800;BME280;6971;50.028;9.258;2023-01-26T06:04:23;99896.88;;;-2.13;100.00
13800;BME280;6971;50.028;9.258;2023-01-26T06:09:35;99898.50;;;-2.32;100.00
13800;BME280;6971;50.028;9.258;2023-01-26T06:14:37;99908.75;;;-2.41;100.00
13800;BME280;6971;50.028;9.258;2023-01-26T06:19:38;99908.94;;;-2.16;100.00
13800;BME280;6971;50.028;9.258;2023-01-26T06:24:39;99917.47;;;-2.25;100.00
13800;BME280;6971;50.028;9.258;2023-01-26T06:29:41;99921.00;;;-2.12;100.00
13800;BME280;6971;50.028;9.258;2023-01-26T06:34:42;99917.53;;;-2.14;100.00
13800;BME280;6971;50.028;9.258;2023-01-26T06:39:43;99905.47;;;-2.18;100.00
13800;BME280;6971;50.028;9.258;2023-01-26T06:44:44;99913.22;;;-2.18;100.00
13800;BME280;6971;50.028;9.258;2023-01-26T06:49:45;99914.16;;;-2.07;100.00
13800;BME280;6971;50.028;9.258;2023-01-26T06:54:48;99915.88;;;-2.06;100.00
13800;BME280;6971;50.028;9.258;2023-01-26T06:59:49;99909.00;;;-2.05;100.00
13800;BME280;6971;50.028;9.258;2023-01-26T07:04:50;99908.97;;;-2.10;100.00
13800;BME280;6971;50.028;9.258;2023-01-26T07:09:51;99911.44;;;-2.27;100.00
13800;BME280;6971;50.028;9.258;2023-01-26T07:14:53;99912.34;;;-2.20;100.00
13800;BME280;6971;50.028;9.258;2023-01-26T07:19:54;99917.53;;;-2.20;100.00
13800;BME280;6971;50.028;9.258;2023-01-26T07:24:57;99920.03;;;-2.30;100.00
13800;BME280;6971;50.028;9.258;2023-01-26T07:29:57;99926.09;;;-2.25;100.00
13800;BME280;6971;50.028;9.258;2023-01-26T07:34:58;99927.91;;;-2.11;100.00
13800;BME280;6971;50.028;9.258;2023-01-26T07:39:59;99921.81;;;-2.21;100.00
13800;BME280;6971;50.028;9.258;2023-01-26T07:45:00;99916.63;;;-2.27;100.00
13800;BME280;6971;50.028;9.258;2023-01-26T07:50:01;99926.13;;;-2.21;100.00
13800;BME280;6971;50.028;9.258;2023-01-26T07:55:03;99918.38;;;-2.21;100.00
13800;BME280;6971;50.028;9.258;2023-01-26T08:00:04;99915.78;;;-2.25;100.00
13800;BME280;6971;50.028;9.258;2023-01-26T08:05:05;99917.50;;;-2.22;100.00
13800;BME280;6971;50.028;9.258;2023-01-26T08:10:08;99917.53;;;-2.17;100.00
13800;BME280;6971;50.028;9.258;2023-01-26T08:15:10;99922.66;;;-2.22;100.00
13800;BME280;6971;50.028;9.258;2023-01-26T08:20:11;99924.28;;;-2.38;100.00
13800;BME280;6971;50.028;9.258;2023-01-26T08:25:13;99923.47;;;-2.32;100.00
13800;BME280;6971;50.028;9.258;2023-01-26T08:30:14;99937.22;;;-2.35;100.00
13800;BME280;6971;50.028;9.258;2023-01-26T08:35:15;99942.44;;;-2.27;100.00
13800;BME280;6971;50.028;9.258;2023-01-26T08:40:29;99945.16;;;-2.07;100.00
13800;BME280;6971;50.028;9.258;2023-01-26T08:45:30;99943.44;;;-2.05;100.00
13800;BME280;6971;50.028;9.258;2023-01-26T08:50:31;99946.81;;;-2.15;100.00
13800;BME280;6971;50.028;9.258;2023-01-26T08:55:33;99942.56;;;-2.08;100.00
13800;BME280;6971;50.028;9.258;2023-01-26T09:00:34;99939.94;;;-2.10;100.00
13800;BME280;6971;50.028;9.258;2023-01-26T09:05:38;99950.41;;;-1.94;100.00
13800;BME280;6971;50.028;9.258;2023-01-26T09:10:39;99953.75;;;-2.05;100.00
13800;BME280;6971;50.028;9.258;2023-01-26T09:15:40;99943.31;;;-2.24;100.00
13800;BME280;6971;50.028;9.258;2023-01-26T09:20:41;99947.81;;;-1.94;100.00
13800;BME280;6971;50.028;9.258;2023-01-26T09:25:45;99949.50;;;-1.97;100.00
13800;BME280;6971;50.028;9.258;2023-01-26T09:30:46;99951.22;;;-1.95;100.00
13800;BME280;6971;50.028;9.258;2023-01-26T09:35:48;99962.47;;;-1.90;100.00
13800;BME280;6971;50.028;9.258;2023-01-26T09:46:24;99958.91;;;-2.11;100.00
13800;BME280;6971;50.028;9.258;2023-01-26T09:51:37;99956.31;;;-2.06;100.00
13800;BME280;6971;50.028;9.258;2023-01-26T09:56:39;99959.69;;;-2.21;100.00
13800;BME280;6971;50.028;9.258;2023-01-26T10:01:56;99951.09;;;-2.19;100.00
13800;BME280;6971;50.028;9.258;2023-01-26T10:07:01;99952.03;;;-2.07;100.00
13800;BME280;6971;50.028;9.258;2023-01-26T10:12:07;99945.09;;;-2.13;100.00
13800;BME280;6971;50.028;9.258;2023-01-26T10:17:19;99945.03;;;-2.26;100.00
13800;BME280;6971;50.028;9.258;2023-01-26T10:27:33;99932.03;;;-2.33;100.00
13800;BME280;6971;50.028;9.258;2023-01-26T10:32:34;99933.94;;;-2.12;100.00
13800;BME280;6971;50.028;9.258;2023-01-26T10:37:36;99926.09;;;-2.25;100.00
13800;BME280;6971;50.028;9.258;2023-01-26T10:42:39;99923.56;;;-2.15;100.00
13800;BME280;6971;50.028;9.258;2023-01-26T10:47:40;99911.53;;;-2.16;100.00
13800;BME280;6971;50.028;9.258;2023-01-26T10:52:59;99916.75;;;-2.04;100.00
13800;BME280;6971;50.028;9.258;2023-01-26T10:58:00;99914.81;;;-2.41;100.00
13800;BME280;6971;50.028;9.258;2023-01-26T11:03:17;99910.56;;;-2.28;100.00
13800;BME280;6971;50.028;9.258;2023-01-26T11:08:36;99903.75;;;-2.13;100.00
13800;BME280;6971;50.028;9.258;2023-01-26T11:13:38;99907.16;;;-2.25;100.00
13800;BME280;6971;50.028;9.258;2023-01-26T11:18:45;99902.09;;;-2.05;100.00
13800;BME280;6971;50.028;9.258;2023-01-26T11:24:00;99909.00;;;-2.01;100.00
13800;BME280;6971;50.028;9.258;2023-01-26T11:34:27;99886.47;;;-2.30;100.00
13800;BME280;6971;50.028;9.258;2023-01-26T11:39:35;99882.97;;;-2.38;100.00
13800;BME280;6971;50.028;9.258;2023-01-26T11:50:38;99871.84;;;-2.26;100.00
13800;BME280;6971;50.028;9.258;2023-01-26T11:55:56;99868.47;;;-2.17;100.00
13800;BME280;6971;50.028;9.258;2023-01-26T12:01:08;99858.88;;;-2.37;100.00
13800;BME280;6971;50.028;9.258;2023-01-26T12:06:18;99860.75;;;-2.10;100.00
13800;BME280;6971;50.028;9.258;2023-01-26T12:11:24;99853.72;;;-2.36;100.00
13800;BME280;6971;50.028;9.258;2023-01-26T12:16:43;99852.09;;;-2.13;100.00
13800;BME280;6971;50.028;9.258;2023-01-26T12:21:48;99850.19;;;-2.49;100.00
13800;BME280;6971;50.028;9.258;2023-01-26T12:26:51;99836.69;;;-1.96;100.00
13800;BME280;6971;50.028;9.258;2023-01-26T12:42:18;99834.94;;;-2.10;100.00
13800;BME280;6971;50.028;9.258;2023-01-26T12:52:56;99818.56;;;-2.02;100.00
13800;BME280;6971;50.028;9.258;2023-01-26T12:58:04;99820.31;;;-1.98;100.00
13800;BME280;6971;50.028;9.258;2023-01-26T13:03:23;99810.06;;;-1.79;99.88
13800;BME280;6971;50.028;9.258;2023-01-26T13:24:41;99804.84;;;-1.90;97.07
13800;BME280;6971;50.028;9.258;2023-01-26T13:29:52;99809.97;;;-2.04;98.25
13800;BME280;6971;50.028;9.258;2023-01-26T13:34:56;99815.16;;;-2.03;97.23
13800;BME280;6971;50.028;9.258;2023-01-26T13:40:13;99815.16;;;-1.97;97.01
13800;BME280;6971;50.028;9.258;2023-01-26T13:50:41;99809.97;;;-2.06;96.07
13800;BME280;6971;50.028;9.258;2023-01-26T13:55:43;99807.38;;;-2.12;97.20
13800;BME280;6971;50.028;9.258;2023-01-26T14:01:06;99806.56;;;-1.94;96.39
13800;BME280;6971;50.028;9.258;2023-01-26T14:06:19;99807.38;;;-2.07;96.09
13800;BME280;6971;50.028;9.258;2023-01-26T14:11:24;99812.63;;;-1.90;95.24
13800;BME280;6971;50.028;9.258;2023-01-26T14:16:31;99807.41;;;-1.97;97.40
13800;BME280;6971;50.028;9.258;2023-01-26T14:21:44;99810.88;;;-1.90;96.89
13800;BME280;6971;50.028;9.258;2023-01-26T14:26:46;99816.91;;;-1.92;95.99
13800;BME280;6971;50.028;9.258;2023-01-26T14:31:48;99810.88;;;-1.87;96.64
13800;BME280;6971;50.028;9.258;2023-01-26T14:37:12;99816.88;;;-2.02;96.94
13800;BME280;6971;50.028;9.258;2023-01-26T14:42:18;99820.31;;;-2.03;97.67
13800;BME280;6971;50.028;9.258;2023-01-26T14:47:30;99820.28;;;-2.14;98.05
13800;BME280;6971;50.028;9.258;2023-01-26T14:52:35;99824.59;;;-2.08;98.51
13800;BME280;6971;50.028;9.258;2023-01-26T14:57:40;99827.19;;;-2.10;99.23
13800;BME280;6971;50.028;9.258;2023-01-26T15:02:43;99835.72;;;-2.20;98.98
13800;BME280;6971;50.028;9.258;2023-01-26T15:07:57;99842.63;;;-2.16;98.51
13800;BME280;6971;50.028;9.258;2023-01-26T15:18:29;99834.91;;;-2.17;97.83
13800;BME280;6971;50.028;9.258;2023-01-26T15:23:50;99836.72;;;-1.94;97.99
13800;BME280;6971;50.028;9.258;2023-01-26T15:28:57;99836.69;;;-2.04;96.64
13800;BME280;6971;50.028;9.258;2023-01-26T15:34:34;99830.66;;;-2.03;98.36
13800;BME280;6971;50.028;9.258;2023-01-26T15:39:36;99835.00;;;-1.89;98.96
13800;BME280;6971;50.028;9.258;2023-01-26T15:44:37;99830.66;;;-1.97;99.60
13800;BME280;6971;50.028;9.258;2023-01-26T15:49:38;99831.53;;;-1.96;100.00
13800;BME280;6971;50.028;9.258;2023-01-26T15:54:41;99833.22;;;-2.03;98.66
13800;BME280;6971;50.028;9.258;2023-01-26T15:59:42;99834.88;;;-2.19;100.00
13800;BME280;6971;50.028;9.258;2023-01-26T16:04:43;99832.31;;;-2.19;100.00
13800;BME280;6971;50.028;9.258;2023-01-26T16:09:44;99839.25;;;-1.99;100.00
13800;BME280;6971;50.028;9.258;2023-01-26T16:14:47;99835.78;;;-2.09;100.00
13800;BME280;6971;50.028;9.258;2023-01-26T16:19:49;99833.25;;;-1.89;100.00
13800;BME280;6971;50.028;9.258;2023-01-26T16:24:49;99831.56;;;-1.85;100.00
13800;BME280;6971;50.028;9.258;2023-01-26T16:29:51;99837.56;;;-1.91;100.00
13800;BME280;6971;50.028;9.258;2023-01-26T16:34:52;99843.59;;;-1.93;100.00
13800;BME280;6971;50.028;9.258;2023-01-26T16:39:53;99836.69;;;-1.98;100.00
13800;BME280;6971;50.028;9.258;2023-01-26T16:44:54;99832.34;;;-2.05;100.00
13800;BME280;6971;50.028;9.258;2023-01-26T16:49:55;99844.41;;;-2.05;100.00
13800;BME280;6971;50.028;9.258;2023-01-26T16:54:56;99843.59;;;-2.00;100.00
13800;BME280;6971;50.028;9.258;2023-01-26T16:59:58;99841.88;;;-1.96;100.00
13800;BME280;6971;50.028;9.258;2023-01-26T17:04:59;99836.66;;;-2.01;100.00
13800;BME280;6971;50.028;9.258;2023-01-26T17:10:07;99842.69;;;-2.03;100.00
13800;BME280;6971;50.028;9.258;2023-01-26T17:15:09;99845.22;;;-2.13;100.00
13800;BME280;6971;50.028;9.258;2023-01-26T17:20:11;99838.38;;;-2.04;100.00
13800;BME280;6971;50.028;9.258;2023-01-26T17:25:13;99845.22;;;-2.14;100.00
13800;BME280;6971;50.028;9.258;2023-01-26T17:30:16;99843.47;;;-2.25;100.00
13800;BME280;6971;50.028;9.258;2023-01-26T17:35:17;99849.38;;;-2.43;100.00
13800;BME280;6971;50.028;9.258;2023-01-26T17:40:18;99850.28;;;-2.36;100.00
13800;BME280;6971;50.028;9.258;2023-01-26T17:45:19;99849.44;;;-2.30;100.00
13800;BME280;6971;50.028;9.258;2023-01-26T17:50:20;99847.75;;;-2.25;100.00
13800;BME280;6971;50.028;9.258;2023-01-26T17:55:34;99853.00;;;-2.11;100.00
13800;BME280;6971;50.028;9.258;2023-01-26T18:00:36;99859.06;;;-1.97;100.00
13800;BME280;6971;50.028;9.258;2023-01-26T18:05:37;99861.56;;;-2.18;100.00
13800;BME280;6971;50.028;9.258;2023-01-26T18:10:38;99854.75;;;-2.01;100.00
13800;BME280;6971;50.028;9.258;2023-01-26T18:15:39;99840.97;;;-2.04;100.00
13800;BME280;6971;50.028;9.258;2023-01-26T18:20:40;99847.88;;;-2.00;100.00
13800;BME280;6971;50.028;9.258;2023-01-26T18:25:41;99844.44;;;-1.99;100.00
13800;BME280;6971;50.028;9.258;2023-01-26T18:30:44;99849.53;;;-2.16;100.00
13800;BME280;6971;50.028;9.258;2023-01-26T18:35:45;99852.94;;;-2.22;100.00
13800;BME280;6971;50.028;9.258;2023-01-26T18:40:46;99855.56;;;-2.14;100.00
13800;BME280;6971;50.028;9.258;2023-01-26T18:45:46;99852.13;;;-2.10;100.00
13800;BME280;6971;50.028;9.258;2023-01-26T18:50:48;99852.09;;;-2.13;100.00
13800;BME280;6971;50.028;9.258;2023-01-26T18:55:49;99852.91;;;-2.27;100.00
13800;BME280;6971;50.028;9.258;2023-01-26T19:00:54;99854.72;;;-2.10;100.00
13800;BME280;6971;50.028;9.258;2023-01-26T19:05:55;99855.53;;;-2.20;100.00
13800;BME280;6971;50.028;9.258;2023-01-26T19:11:02;99853.69;;;-2.40;100.00
13800;BME280;6971;50.028;9.258;2023-01-26T19:16:03;99855.38;;;-2.45;100.00
13800;BME280;6971;50.028;9.258;2023-01-26T19:21:04;99858.88;;;-2.37;100.00
13800;BME280;6971;50.028;9.258;2023-01-26T19:26:14;99853.75;;;-2.32;100.00
13800;BME280;6971;50.028;9.258;2023-01-26T19:31:17;99849.41;;;-2.33;100.00
13800;BME280;6971;50.028;9.258;2023-01-26T19:36:20;99850.34;;;-2.24;100.00
13800;BME280;6971;50.028;9.258;2023-01-26T19:41:22;99846.97;;;-2.10;100.00
13800;BME280;6971;50.028;9.258;2023-01-26T19:46:27;99848.66;;;-2.18;100.00
13800;BME280;6971;50.028;9.258;2023-01-26T19:51:28;99849.44;;;-2.37;100.00
13800;BME280;6971;50.028;9.258;2023-01-26T19:56:31;99846.72;;;-2.54;100.00
13800;BME280;6971;50.028;9.258;2023-01-26T20:01:33;99845.03;;;-2.49;100.00
13800;BME280;6971;50.028;9.258;2023-01-26T20:06:35;99835.53;;;-2.57;100.00
13800;BME280;6971;50.028;9.258;2023-01-26T20:11:36;99829.50;;;-2.55;100.00
13800;BME280;6971;50.028;9.258;2023-01-26T20:16:37;99839.97;;;-2.33;100.00
13800;BME280;6971;50.028;9.258;2023-01-26T20:21:41;99833.88;;;-2.43;100.00
13800;BME280;6971;50.028;9.258;2023-01-26T20:26:43;99826.19;;;-2.38;100.00
13800;BME280;6971;50.028;9.258;2023-01-26T20:31:44;99832.19;;;-2.42;100.00
13800;BME280;6971;50.028;9.258;2023-01-26T20:36:47;99826.97;;;-2.47;100.00
13800;BME280;6971;50.028;9.258;2023-01-26T20:41:48;99827.75;;;-2.59;100.00
13800;BME280;6971;50.028;9.258;2023-01-26T20:46:51;99820.09;;;-2.48;100.00
13800;BME280;6971;50.028;9.258;2023-01-26T20:51:52;99827.88;;;-2.42;100.00
13800;BME280;6971;50.028;9.258;2023-01-26T20:56:53;99829.50;;;-2.61;100.00
13800;BME280;6971;50.028;9.258;2023-01-26T21:01:54;99822.59;;;-2.59;100.00
13800;BME280;6971;50.028;9.258;2023-01-26T21:06:55;99827.88;;;-2.43;100.00
13800;BME280;6971;50.028;9.258;2023-01-26T21:11:56;99826.94;;;-2.53;100.00
13800;BME280;6971;50.028;9.258;2023-01-26T21:16:58;99817.53;;;-2.40;100.00
13800;BME280;6971;50.028;9.258;2023-01-26T21:21:59;99810.72;;;-2.32;100.00
13800;BME280;6971;50.028;9.258;2023-01-26T21:27:00;99811.50;;;-2.44;100.00
13800;BME280;6971;50.028;9.258;2023-01-26T21:32:02;99806.38;;;-2.38;100.00
13800;BME280;6971;50.028;9.258;2023-01-26T21:37:03;99804.72;;;-2.26;100.00
13800;BME280;6971;50.028;9.258;2023-01-26T21:42:04;99796.13;;;-2.20;100.00
13800;BME280;6971;50.028;9.258;2023-01-26T21:47:05;99799.56;;;-2.18;100.00
13800;BME280;6971;50.028;9.258;2023-01-26T21:52:07;99790.13;;;-2.18;100.00
13800;BME280;6971;50.028;9.258;2023-01-26T21:57:27;99793.56;;;-2.14;100.00
13800;BME280;6971;50.028;9.258;2023-01-26T22:02:47;99790.13;;;-2.16;100.00
13800;BME280;6971;50.028;9.258;2023-01-26T22:07:48;99787.53;;;-2.16;100.00
13800;BME280;6971;50.028;9.258;2023-01-26T22:12:49;99797.03;;;-2.06;100.00
13800;BME280;6971;50.028;9.258;2023-01-26T22:17:50;99791.78;;;-2.28;100.00
13800;BME280;6971;50.028;9.258;2023-01-26T22:22:52;99798.72;;;-2.14;100.00
13800;BME280;6971;50.028;9.258;2023-01-26T22:27:52;99792.66;;;-2.23;100.00
13800;BME280;6971;50.028;9.258;2023-01-26T22:32:53;99792.72;;;-2.12;100.00
13800;BME280;6971;50.028;9.258;2023-01-26T22:37:54;99791.03;;;-2.03;100.00
13800;BME280;6971;50.028;9.258;2023-01-26T22:42:56;99794.47;;;-2.04;100.00
13800;BME280;6971;50.028;9.258;2023-01-26T22:47:57;99797.06;;;-2.03;100.00
13800;BME280;6971;50.028;9.258;2023-01-26T22:52:58;99788.44;;;-2.08;100.00
13800;BME280;6971;50.028;9.258;2023-01-26T22:57:58;99785.88;;;-1.99;100.00
13800;BME280;6971;50.028;9.258;2023-01-26T23:03:00;99780.72;;;-2.00;100.00
13800;BME280;6971;50.028;9.258;2023-01-26T23:08:02;99789.31;;;-2.01;100.00
13800;BME280;6971;50.028;9.258;2023-01-26T23:13:03;99781.53;;;-2.06;100.00
13800;BME280;6971;50.028;9.258;2023-01-26T23:18:10;99777.22;;;-2.08;100.00
13800;BME280;6971;50.028;9.258;2023-01-26T23:23:11;99767.78;;;-2.02;100.00
13800;BME280;6971;50.028;9.258;2023-01-26T23:28:12;99760.00;;;-2.10;100.00
13800;BME280;6971;50.028;9.258;2023-01-26T23:33:15;99765.22;;;-1.99;100.00
13800;BME280;6971;50.028;9.258;2023-01-26T23:38:17;99763.47;;;-1.97;100.00
13800;BME280;6971;50.028;9.258;2023-01-26T23:43:19;99771.25;;;-2.00;100.00
13800;BME280;6971;50.028;9.258;2023-01-26T23:48:22;99767.78;;;-2.00;100.00
13800;BME280;6971;50.028;9.258;2023-01-26T23:53:23;99772.91;;;-2.06;100.00
13800;BME280;6971;50.028;9.258;2023-01-26T23:58:24;99768.66;;;-2.01;100.00
